sensor_id;sensor_type;location;lat;lon;timestamp;P1;durP1;ratioP1;P2;durP2;ratioP2
30301;SDS011;17111;52.130;5.028;2023-07-29T00:00:06;4.38;;;3.25;;
30301;SDS011;17111;52.130;5.028;2023-07-29T00:02:33;5.13;;;3.45;;
30301;SDS011;17111;52.130;5.028;2023-07-29T00:05:00;5.63;;;3.25;;
30301;SDS011;17111;52.130;5.028;2023-07-29T00:07:27;4.95;;;3.40;;
30301;SDS011;17111;52.130;5.028;2023-07-29T00:09:53;5.07;;;3.13;;
30301;SDS011;17111;52.130;5.028;2023-07-29T00:12:20;5.70;;;3.30;;
30301;SDS011;17111;52.130;5.028;2023-07-29T00:14:47;4.90;;;3.08;;
30301;SDS011;17111;52.130;5.028;2023-07-29T00:17:13;4.63;;;2.83;;
30301;SDS011;17111;52.130;5.028;2023-07-29T00:19:40;3.78;;;3.13;;
30301;SDS011;17111;52.130;5.028;2023-07-29T00:22:06;4.68;;;3.13;;
30301;SDS011;17111;52.130;5.028;2023-07-29T00:24:34;4.43;;;3.20;;
30301;SDS011;17111;52.130;5.028;2023-07-29T00:27:01;4.72;;;3.30;;
30301;SDS011;17111;52.130;5.028;2023-07-29T00:29:27;3.88;;;3.00;;
30301;SDS011;17111;52.130;5.028;2023-07-29T00:31:54;5.30;;;2.88;;
30301;SDS011;17111;52.130;5.028;2023-07-29T00:34:21;4.10;;;2.70;;
30301;SDS011;17111;52.130;5.028;2023-07-29T00:36:47;4.90;;;3.28;;
30301;SDS011;17111;52.130;5.028;2023-07-29T00:39:14;4.65;;;3.28;;
30301;SDS011;17111;52.130;5.028;2023-07-29T00:41:40;4.32;;;2.83;;
30301;SDS011;17111;52.130;5.028;2023-07-29T00:44:07;4.53;;;3.10;;
30301;SDS011;17111;52.130;5.028;2023-07-29T00:46:34;4.18;;;2.75;;
30301;SDS011;17111;52.130;5.028;2023-07-29T00:49:04;3.60;;;2.67;;
30301;SDS011;17111;52.130;5.028;2023-07-29T00:51:31;3.63;;;2.65;;
30301;SDS011;17111;52.130;5.028;2023-07-29T00:53:57;4.30;;;2.90;;
30301;SDS011;17111;52.130;5.028;2023-07-29T00:56:24;4.05;;;2.67;;
30301;SDS011;17111;52.130;5.028;2023-07-29T00:58:51;4.75;;;2.80;;
30301;SDS011;17111;52.130;5.028;2023-07-29T01:01:22;3.28;;;2.45;;
30301;SDS011;17111;52.130;5.028;2023-07-29T01:03:49;5.45;;;2.80;;
30301;SDS011;17111;52.130;5.028;2023-07-29T01:06:25;4.55;;;2.63;;
30301;SDS011;17111;52.130;5.028;2023-07-29T01:08:55;3.10;;;2.45;;
30301;SDS011;17111;52.130;5.028;2023-07-29T01:11:33;3.60;;;2.67;;
30301;SDS011;17111;52.130;5.028;2023-07-29T01:14:15;3.80;;;2.63;;
30301;SDS011;17111;52.130;5.028;2023-07-29T01:16:55;3.03;;;2.30;;
30301;SDS011;17111;52.130;5.028;2023-07-29T01:21:59;3.00;;;2.15;;
30301;SDS011;17111;52.130;5.028;2023-07-29T01:24:27;3.30;;;2.25;;
30301;SDS011;17111;52.130;5.028;2023-07-29T01:26:54;3.08;;;2.20;;
30301;SDS011;17111;52.130;5.028;2023-07-29T01:29:20;2.90;;;2.50;;
30301;SDS011;17111;52.130;5.028;2023-07-29T01:31:47;3.03;;;2.40;;
30301;SDS011;17111;52.130;5.028;2023-07-29T01:34:23;4.97;;;2.45;;
30301;SDS011;17111;52.130;5.028;2023-07-29T01:36:54;3.47;;;2.42;;
30301;SDS011;17111;52.130;5.028;2023-07-29T01:39:29;3.70;;;2.63;;
30301;SDS011;17111;52.130;5.028;2023-07-29T01:41:58;3.67;;;2.30;;
30301;SDS011;17111;52.130;5.028;2023-07-29T01:44:25;3.63;;;2.45;;
30301;SDS011;17111;52.130;5.028;2023-07-29T01:46:54;3.20;;;2.20;;
30301;SDS011;17111;52.130;5.028;2023-07-29T01:49:24;4.47;;;2.30;;
30301;SDS011;17111;52.130;5.028;2023-07-29T01:51:50;3.90;;;2.53;;
30301;SDS011;17111;52.130;5.028;2023-07-29T01:54:17;3.13;;;2.20;;
30301;SDS011;17111;52.130;5.028;2023-07-29T01:56:43;3.95;;;2.75;;
30301;SDS011;17111;52.130;5.028;2023-07-29T01:59:11;4.55;;;2.35;;
30301;SDS011;17111;52.130;5.028;2023-07-29T02:01:39;3.92;;;2.25;;
30301;SDS011;17111;52.130;5.028;2023-07-29T02:04:06;5.43;;;2.53;;
30301;SDS011;17111;52.130;5.028;2023-07-29T02:06:32;3.53;;;2.30;;
30301;SDS011;17111;52.130;5.028;2023-07-29T02:09:00;3.47;;;1.92;;
30301;SDS011;17111;52.130;5.028;2023-07-29T02:11:26;3.85;;;2.25;;
30301;SDS011;17111;52.130;5.028;2023-07-29T02:13:54;2.22;;;1.85;;
30301;SDS011;17111;52.130;5.028;2023-07-29T02:16:21;3.40;;;2.50;;
30301;SDS011;17111;52.130;5.028;2023-07-29T02:18:49;4.15;;;2.03;;
30301;SDS011;17111;52.130;5.028;2023-07-29T02:21:21;3.92;;;2.17;;
30301;SDS011;17111;52.130;5.028;2023-07-29T02:23:48;3.22;;;2.05;;
30301;SDS011;17111;52.130;5.028;2023-07-29T02:26:14;3.22;;;1.88;;
30301;SDS011;17111;52.130;5.028;2023-07-29T02:28:42;3.20;;;2.00;;
30301;SDS011;17111;52.130;5.028;2023-07-29T02:31:09;3.60;;;1.92;;
30301;SDS011;17111;52.130;5.028;2023-07-29T02:33:40;2.60;;;1.88;;
30301;SDS011;17111;52.130;5.028;2023-07-29T02:36:07;3.03;;;2.13;;
30301;SDS011;17111;52.130;5.028;2023-07-29T02:38:33;3.60;;;2.17;;
30301;SDS011;17111;52.130;5.028;2023-07-29T02:41:00;2.72;;;1.98;;
30301;SDS011;17111;52.130;5.028;2023-07-29T02:43:27;2.78;;;2.00;;
30301;SDS011;17111;52.130;5.028;2023-07-29T02:45:53;2.63;;;2.08;;
30301;SDS011;17111;52.130;5.028;2023-07-29T02:48:20;2.95;;;1.80;;
30301;SDS011;17111;52.130;5.028;2023-07-29T02:50:46;3.05;;;1.80;;
30301;SDS011;17111;52.130;5.028;2023-07-29T02:53:13;3.05;;;1.85;;
30301;SDS011;17111;52.130;5.028;2023-07-29T02:55:40;3.30;;;2.20;;
30301;SDS011;17111;52.130;5.028;2023-07-29T02:58:07;3.05;;;1.73;;
30301;SDS011;17111;52.130;5.028;2023-07-29T03:00:34;2.22;;;1.67;;
30301;SDS011;17111;52.130;5.028;2023-07-29T03:03:00;4.53;;;1.73;;
30301;SDS011;17111;52.130;5.028;2023-07-29T03:05:27;3.10;;;1.83;;
30301;SDS011;17111;52.130;5.028;2023-07-29T03:07:54;3.35;;;1.75;;
30301;SDS011;17111;52.130;5.028;2023-07-29T03:10:21;3.38;;;1.75;;
30301;SDS011;17111;52.130;5.028;2023-07-29T03:12:48;4.25;;;1.85;;
30301;SDS011;17111;52.130;5.028;2023-07-29T03:15:15;2.97;;;2.00;;
30301;SDS011;17111;52.130;5.028;2023-07-29T03:17:41;2.90;;;1.70;;
30301;SDS011;17111;52.130;5.028;2023-07-29T03:20:08;4.18;;;2.05;;
30301;SDS011;17111;52.130;5.028;2023-07-29T03:22:35;3.38;;;1.90;;
30301;SDS011;17111;52.130;5.028;2023-07-29T03:25:01;3.28;;;1.55;;
30301;SDS011;17111;52.130;5.028;2023-07-29T03:27:28;2.22;;;1.50;;
30301;SDS011;17111;52.130;5.028;2023-07-29T03:29:54;2.45;;;1.65;;
30301;SDS011;17111;52.130;5.028;2023-07-29T03:32:21;1.63;;;1.33;;
30301;SDS011;17111;52.130;5.028;2023-07-29T03:34:48;2.33;;;1.42;;
30301;SDS011;17111;52.130;5.028;2023-07-29T03:37:14;2.15;;;1.58;;
30301;SDS011;17111;52.130;5.028;2023-07-29T03:39:41;2.08;;;1.50;;
30301;SDS011;17111;52.130;5.028;2023-07-29T03:42:07;3.22;;;1.92;;
30301;SDS011;17111;52.130;5.028;2023-07-29T03:44:34;1.95;;;1.63;;
30301;SDS011;17111;52.130;5.028;2023-07-29T03:47:01;3.08;;;1.67;;
30301;SDS011;17111;52.130;5.028;2023-07-29T03:49:28;1.90;;;1.20;;
30301;SDS011;17111;52.130;5.028;2023-07-29T03:51:54;2.58;;;1.40;;
30301;SDS011;17111;52.130;5.028;2023-07-29T03:54:21;3.33;;;2.03;;
30301;SDS011;17111;52.130;5.028;2023-07-29T03:56:48;2.88;;;1.30;;
30301;SDS011;17111;52.130;5.028;2023-07-29T03:59:14;2.95;;;1.58;;
30301;SDS011;17111;52.130;5.028;2023-07-29T04:01:41;2.30;;;1.40;;
30301;SDS011;17111;52.130;5.028;2023-07-29T04:04:08;3.65;;;1.63;;
30301;SDS011;17111;52.130;5.028;2023-07-29T04:06:34;1.52;;;1.10;;
30301;SDS011;17111;52.130;5.028;2023-07-29T04:09:01;1.67;;;1.42;;
30301;SDS011;17111;52.130;5.028;2023-07-29T04:11:28;2.83;;;1.60;;
30301;SDS011;17111;52.130;5.028;2023-07-29T04:13:55;2.40;;;1.73;;
30301;SDS011;17111;52.130;5.028;2023-07-29T04:16:21;1.38;;;1.13;;
30301;SDS011;17111;52.130;5.028;2023-07-29T04:18:48;2.22;;;1.35;;
30301;SDS011;17111;52.130;5.028;2023-07-29T04:21:15;2.65;;;1.40;;
30301;SDS011;17111;52.130;5.028;2023-07-29T04:23:41;2.38;;;1.40;;
30301;SDS011;17111;52.130;5.028;2023-07-29T04:26:08;3.10;;;1.35;;
30301;SDS011;17111;52.130;5.028;2023-07-29T04:28:34;1.55;;;1.20;;
30301;SDS011;17111;52.130;5.028;2023-07-29T04:31:01;2.33;;;1.30;;
30301;SDS011;17111;52.130;5.028;2023-07-29T04:33:29;2.22;;;1.27;;
30301;SDS011;17111;52.130;5.028;2023-07-29T04:35:59;1.58;;;1.20;;
30301;SDS011;17111;52.130;5.028;2023-07-29T04:38:30;2.00;;;1.30;;
30301;SDS011;17111;52.130;5.028;2023-07-29T04:41:01;4.00;;;1.65;;
30301;SDS011;17111;52.130;5.028;2023-07-29T04:43:30;1.70;;;1.30;;
30301;SDS011;17111;52.130;5.028;2023-07-29T04:45:57;1.80;;;1.00;;
30301;SDS011;17111;52.130;5.028;2023-07-29T04:48:24;2.47;;;1.33;;
30301;SDS011;17111;52.130;5.028;2023-07-29T04:50:50;2.28;;;1.45;;
30301;SDS011;17111;52.130;5.028;2023-07-29T04:53:17;3.22;;;1.52;;
30301;SDS011;17111;52.130;5.028;2023-07-29T04:55:43;1.95;;;1.40;;
30301;SDS011;17111;52.130;5.028;2023-07-29T04:58:10;3.38;;;1.50;;
30301;SDS011;17111;52.130;5.028;2023-07-29T05:00:37;2.50;;;1.40;;
30301;SDS011;17111;52.130;5.028;2023-07-29T05:03:03;1.52;;;1.27;;
30301;SDS011;17111;52.130;5.028;2023-07-29T05:05:30;2.20;;;1.42;;
30301;SDS011;17111;52.130;5.028;2023-07-29T05:07:57;2.05;;;1.35;;
30301;SDS011;17111;52.130;5.028;2023-07-29T05:10:23;3.25;;;1.30;;
30301;SDS011;17111;52.130;5.028;2023-07-29T05:12:50;1.83;;;1.30;;
30301;SDS011;17111;52.130;5.028;2023-07-29T05:15:16;3.20;;;1.15;;
30301;SDS011;17111;52.130;5.028;2023-07-29T05:17:45;3.20;;;1.17;;
30301;SDS011;17111;52.130;5.028;2023-07-29T05:20:11;3.75;;;1.48;;
30301;SDS011;17111;52.130;5.028;2023-07-29T05:22:38;1.95;;;1.25;;
30301;SDS011;17111;52.130;5.028;2023-07-29T05:25:05;2.67;;;1.40;;
30301;SDS011;17111;52.130;5.028;2023-07-29T05:27:32;1.75;;;1.27;;
30301;SDS011;17111;52.130;5.028;2023-07-29T05:29:58;3.28;;;1.40;;
30301;SDS011;17111;52.130;5.028;2023-07-29T05:32:25;4.20;;;1.23;;
30301;SDS011;17111;52.130;5.028;2023-07-29T05:34:52;1.90;;;1.17;;
30301;SDS011;17111;52.130;5.028;2023-07-29T05:37:18;1.95;;;1.20;;
30301;SDS011;17111;52.130;5.028;2023-07-29T05:39:45;2.63;;;1.48;;
30301;SDS011;17111;52.130;5.028;2023-07-29T05:42:11;3.67;;;1.45;;
30301;SDS011;17111;52.130;5.028;2023-07-29T05:44:38;2.55;;;1.27;;
30301;SDS011;17111;52.130;5.028;2023-07-29T05:47:04;1.95;;;1.25;;
30301;SDS011;17111;52.130;5.028;2023-07-29T05:49:31;2.03;;;1.20;;
30301;SDS011;17111;52.130;5.028;2023-07-29T05:51:58;2.50;;;1.35;;
30301;SDS011;17111;52.130;5.028;2023-07-29T05:54:25;2.33;;;1.30;;
30301;SDS011;17111;52.130;5.028;2023-07-29T05:56:51;3.25;;;1.50;;
30301;SDS011;17111;52.130;5.028;2023-07-29T05:59:18;1.65;;;1.35;;
30301;SDS011;17111;52.130;5.028;2023-07-29T06:01:44;1.98;;;1.30;;
30301;SDS011;17111;52.130;5.028;2023-07-29T06:04:11;2.55;;;1.38;;
30301;SDS011;17111;52.130;5.028;2023-07-29T06:06:38;2.50;;;1.27;;
30301;SDS011;17111;52.130;5.028;2023-07-29T06:09:04;3.10;;;1.70;;
30301;SDS011;17111;52.130;5.028;2023-07-29T06:11:31;7.38;;;2.10;;
30301;SDS011;17111;52.130;5.028;2023-07-29T06:13:58;5.28;;;2.47;;
30301;SDS011;17111;52.130;5.028;2023-07-29T06:16:24;6.22;;;3.15;;
30301;SDS011;17111;52.130;5.028;2023-07-29T06:18:51;8.45;;;3.20;;
30301;SDS011;17111;52.130;5.028;2023-07-29T06:21:19;7.18;;;3.63;;
30301;SDS011;17111;52.130;5.028;2023-07-29T06:23:46;10.88;;;3.40;;
30301;SDS011;17111;52.130;5.028;2023-07-29T06:26:12;9.05;;;3.45;;
30301;SDS011;17111;52.130;5.028;2023-07-29T06:28:39;7.95;;;3.42;;
30301;SDS011;17111;52.130;5.028;2023-07-29T06:31:05;9.68;;;4.25;;
30301;SDS011;17111;52.130;5.028;2023-07-29T06:33:32;9.75;;;3.75;;
30301;SDS011;17111;52.130;5.028;2023-07-29T06:35:59;10.88;;;4.15;;
30301;SDS011;17111;52.130;5.028;2023-07-29T06:38:25;6.97;;;3.95;;
30301;SDS011;17111;52.130;5.028;2023-07-29T06:40:52;12.73;;;3.65;;
30301;SDS011;17111;52.130;5.028;2023-07-29T06:43:19;6.72;;;3.70;;
30301;SDS011;17111;52.130;5.028;2023-07-29T06:45:45;7.60;;;3.65;;
30301;SDS011;17111;52.130;5.028;2023-07-29T06:48:12;9.00;;;3.70;;
30301;SDS011;17111;52.130;5.028;2023-07-29T06:50:38;7.15;;;3.58;;
30301;SDS011;17111;52.130;5.028;2023-07-29T06:53:05;6.25;;;3.60;;
30301;SDS011;17111;52.130;5.028;2023-07-29T06:55:32;4.47;;;2.80;;
30301;SDS011;17111;52.130;5.028;2023-07-29T06:57:59;4.65;;;3.10;;
30301;SDS011;17111;52.130;5.028;2023-07-29T07:00:25;6.45;;;3.10;;
30301;SDS011;17111;52.130;5.028;2023-07-29T07:02:52;8.55;;;3.33;;
30301;SDS011;17111;52.130;5.028;2023-07-29T07:05:19;6.00;;;3.40;;
30301;SDS011;17111;52.130;5.028;2023-07-29T07:07:45;7.25;;;2.88;;
30301;SDS011;17111;52.130;5.028;2023-07-29T07:10:12;5.25;;;2.60;;
30301;SDS011;17111;52.130;5.028;2023-07-29T07:12:39;9.65;;;3.55;;
30301;SDS011;17111;52.130;5.028;2023-07-29T07:15:06;10.55;;;3.50;;
30301;SDS011;17111;52.130;5.028;2023-07-29T07:17:33;6.25;;;2.85;;
30301;SDS011;17111;52.130;5.028;2023-07-29T07:20:00;8.40;;;2.70;;
30301;SDS011;17111;52.130;5.028;2023-07-29T07:22:26;9.40;;;2.80;;
30301;SDS011;17111;52.130;5.028;2023-07-29T07:24:53;5.78;;;2.58;;
30301;SDS011;17111;52.130;5.028;2023-07-29T07:27:19;6.50;;;3.13;;
30301;SDS011;17111;52.130;5.028;2023-07-29T07:29:46;6.47;;;2.40;;
30301;SDS011;17111;52.130;5.028;2023-07-29T07:32:12;4.68;;;2.75;;
30301;SDS011;17111;52.130;5.028;2023-07-29T07:34:39;5.95;;;2.35;;
30301;SDS011;17111;52.130;5.028;2023-07-29T07:37:06;8.85;;;2.88;;
30301;SDS011;17111;52.130;5.028;2023-07-29T07:39:33;5.00;;;2.22;;
30301;SDS011;17111;52.130;5.028;2023-07-29T07:41:59;5.55;;;2.67;;
30301;SDS011;17111;52.130;5.028;2023-07-29T07:44:26;7.00;;;2.47;;
30301;SDS011;17111;52.130;5.028;2023-07-29T07:46:52;5.13;;;2.40;;
30301;SDS011;17111;52.130;5.028;2023-07-29T07:49:22;5.40;;;2.22;;
30301;SDS011;17111;52.130;5.028;2023-07-29T07:51:49;4.28;;;2.17;;
30301;SDS011;17111;52.130;5.028;2023-07-29T07:54:16;6.03;;;2.20;;
30301;SDS011;17111;52.130;5.028;2023-07-29T07:56:42;4.10;;;2.20;;
30301;SDS011;17111;52.130;5.028;2023-07-29T07:59:09;6.82;;;2.40;;
30301;SDS011;17111;52.130;5.028;2023-07-29T08:01:38;3.90;;;2.08;;
30301;SDS011;17111;52.130;5.028;2023-07-29T08:04:05;4.00;;;1.85;;
30301;SDS011;17111;52.130;5.028;2023-07-29T08:06:32;3.38;;;1.88;;
30301;SDS011;17111;52.130;5.028;2023-07-29T08:08:59;3.50;;;2.00;;
30301;SDS011;17111;52.130;5.028;2023-07-29T08:11:26;3.60;;;1.80;;
30301;SDS011;17111;52.130;5.028;2023-07-29T08:13:52;3.25;;;1.80;;
30301;SDS011;17111;52.130;5.028;2023-07-29T08:16:19;3.42;;;2.45;;
30301;SDS011;17111;52.130;5.028;2023-07-29T08:18:46;3.00;;;1.80;;
30301;SDS011;17111;52.130;5.028;2023-07-29T08:21:13;3.15;;;1.80;;
30301;SDS011;17111;52.130;5.028;2023-07-29T08:23:40;3.35;;;1.80;;
30301;SDS011;17111;52.130;5.028;2023-07-29T08:26:06;3.03;;;1.73;;
30301;SDS011;17111;52.130;5.028;2023-07-29T08:28:37;3.85;;;1.70;;
30301;SDS011;17111;52.130;5.028;2023-07-29T08:31:05;2.00;;;1.63;;
30301;SDS011;17111;52.130;5.028;2023-07-29T08:33:33;2.92;;;1.50;;
30301;SDS011;17111;52.130;5.028;2023-07-29T08:36:01;2.88;;;1.67;;
30301;SDS011;17111;52.130;5.028;2023-07-29T08:38:28;5.47;;;1.90;;
30301;SDS011;17111;52.130;5.028;2023-07-29T08:44:18;5.72;;;1.70;;
30301;SDS011;17111;52.130;5.028;2023-07-29T08:46:43;4.53;;;1.70;;
30301;SDS011;17111;52.130;5.028;2023-07-29T08:49:13;3.78;;;2.00;;
30301;SDS011;17111;52.130;5.028;2023-07-29T08:51:47;4.90;;;1.85;;
30301;SDS011;17111;52.130;5.028;2023-07-29T08:54:16;4.93;;;1.75;;
30301;SDS011;17111;52.130;5.028;2023-07-29T08:56:42;2.60;;;1.60;;
30301;SDS011;17111;52.130;5.028;2023-07-29T08:59:10;2.75;;;1.48;;
30301;SDS011;17111;52.130;5.028;2023-07-29T09:01:41;3.08;;;1.40;;
30301;SDS011;17111;52.130;5.028;2023-07-29T09:04:08;5.00;;;1.80;;
30301;SDS011;17111;52.130;5.028;2023-07-29T09:06:35;2.83;;;1.70;;
30301;SDS011;17111;52.130;5.028;2023-07-29T09:09:07;2.22;;;1.60;;
30301;SDS011;17111;52.130;5.028;2023-07-29T09:11:34;3.88;;;1.80;;
30301;SDS011;17111;52.130;5.028;2023-07-29T09:14:01;4.38;;;1.75;;
30301;SDS011;17111;52.130;5.028;2023-07-29T09:16:28;7.32;;;1.58;;
30301;SDS011;17111;52.130;5.028;2023-07-29T09:18:55;4.53;;;1.75;;
30301;SDS011;17111;52.130;5.028;2023-07-29T09:21:24;4.00;;;1.67;;
30301;SDS011;17111;52.130;5.028;2023-07-29T09:23:53;5.35;;;1.75;;
30301;SDS011;17111;52.130;5.028;2023-07-29T09:26:26;4.30;;;2.00;;
30301;SDS011;17111;52.130;5.028;2023-07-29T09:28:54;2.38;;;1.65;;
30301;SDS011;17111;52.130;5.028;2023-07-29T09:31:23;8.70;;;2.45;;
30301;SDS011;17111;52.130;5.028;2023-07-29T09:33:57;3.55;;;1.58;;
30301;SDS011;17111;52.130;5.028;2023-07-29T09:36:25;4.63;;;1.70;;
30301;SDS011;17111;52.130;5.028;2023-07-29T09:38:53;3.65;;;1.58;;
30301;SDS011;17111;52.130;5.028;2023-07-29T09:41:27;3.33;;;1.35;;
30301;SDS011;17111;52.130;5.028;2023-07-29T09:43:55;3.10;;;1.50;;
30301;SDS011;17111;52.130;5.028;2023-07-29T09:46:24;5.55;;;1.38;;
30301;SDS011;17111;52.130;5.028;2023-07-29T09:48:53;3.00;;;1.55;;
30301;SDS011;17111;52.130;5.028;2023-07-29T09:51:23;3.35;;;1.60;;
30301;SDS011;17111;52.130;5.028;2023-07-29T09:53:50;3.35;;;1.55;;
30301;SDS011;17111;52.130;5.028;2023-07-29T09:56:18;2.80;;;1.88;;
30301;SDS011;17111;52.130;5.028;2023-07-29T09:58:52;4.22;;;1.95;;
30301;SDS011;17111;52.130;5.028;2023-07-29T10:01:18;3.70;;;1.50;;
30301;SDS011;17111;52.130;5.028;2023-07-29T10:03:46;3.40;;;1.88;;
30301;SDS011;17111;52.130;5.028;2023-07-29T10:06:14;5.57;;;1.45;;
30301;SDS011;17111;52.130;5.028;2023-07-29T10:08:42;3.78;;;1.60;;
30301;SDS011;17111;52.130;5.028;2023-07-29T10:11:10;3.60;;;1.70;;
30301;SDS011;17111;52.130;5.028;2023-07-29T10:13:37;6.10;;;1.75;;
30301;SDS011;17111;52.130;5.028;2023-07-29T10:16:04;3.40;;;1.60;;
30301;SDS011;17111;52.130;5.028;2023-07-29T10:18:32;5.07;;;1.88;;
30301;SDS011;17111;52.130;5.028;2023-07-29T10:21:00;3.80;;;1.80;;
30301;SDS011;17111;52.130;5.028;2023-07-29T10:23:28;4.10;;;1.55;;
30301;SDS011;17111;52.130;5.028;2023-07-29T10:26:04;11.55;;;2.03;;
30301;SDS011;17111;52.130;5.028;2023-07-29T10:28:32;5.20;;;1.65;;
30301;SDS011;17111;52.130;5.028;2023-07-29T10:31:01;3.63;;;1.85;;
30301;SDS011;17111;52.130;5.028;2023-07-29T10:33:29;3.75;;;2.00;;
30301;SDS011;17111;52.130;5.028;2023-07-29T10:35:59;4.80;;;1.90;;
30301;SDS011;17111;52.130;5.028;2023-07-29T10:38:27;3.45;;;1.48;;
30301;SDS011;17111;52.130;5.028;2023-07-29T10:40:57;5.15;;;2.10;;
30301;SDS011;17111;52.130;5.028;2023-07-29T10:43:27;5.00;;;2.20;;
30301;SDS011;17111;52.130;5.028;2023-07-29T10:46:38;4.85;;;1.90;;
30301;SDS011;17111;52.130;5.028;2023-07-29T10:49:01;3.58;;;1.60;;
30301;SDS011;17111;52.130;5.028;2023-07-29T10:54:12;4.05;;;1.77;;
30301;SDS011;17111;52.130;5.028;2023-07-29T10:56:41;3.22;;;1.70;;
30301;SDS011;17111;52.130;5.028;2023-07-29T11:01:39;5.00;;;1.73;;
30301;SDS011;17111;52.130;5.028;2023-07-29T11:15:19;7.47;;;1.85;;
30301;SDS011;17111;52.130;5.028;2023-07-29T11:17:49;3.13;;;1.42;;
30301;SDS011;17111;52.130;5.028;2023-07-29T11:20:18;4.60;;;1.67;;
30301;SDS011;17111;52.130;5.028;2023-07-29T11:22:46;5.20;;;1.85;;
30301;SDS011;17111;52.130;5.028;2023-07-29T11:25:13;3.75;;;1.60;;
30301;SDS011;17111;52.130;5.028;2023-07-29T11:27:42;2.25;;;1.15;;
30301;SDS011;17111;52.130;5.028;2023-07-29T11:30:10;3.67;;;1.20;;
30301;SDS011;17111;52.130;5.028;2023-07-29T11:32:39;1.88;;;1.30;;
30301;SDS011;17111;52.130;5.028;2023-07-29T11:35:08;2.30;;;1.15;;
30301;SDS011;17111;52.130;5.028;2023-07-29T11:37:41;3.13;;;1.15;;
30301;SDS011;17111;52.130;5.028;2023-07-29T11:40:15;1.52;;;1.00;;
30301;SDS011;17111;52.130;5.028;2023-07-29T11:42:46;2.85;;;1.13;;
30301;SDS011;17111;52.130;5.028;2023-07-29T11:45:14;3.63;;;1.20;;
30301;SDS011;17111;52.130;5.028;2023-07-29T11:47:43;2.88;;;1.00;;
30301;SDS011;17111;52.130;5.028;2023-07-29T11:50:11;2.28;;;1.08;;
30301;SDS011;17111;52.130;5.028;2023-07-29T11:52:42;2.22;;;1.10;;
30301;SDS011;17111;52.130;5.028;2023-07-29T11:55:11;3.97;;;1.13;;
30301;SDS011;17111;52.130;5.028;2023-07-29T11:57:39;1.95;;;0.82;;
30301;SDS011;17111;52.130;5.028;2023-07-29T12:00:08;4.43;;;1.25;;
30301;SDS011;17111;52.130;5.028;2023-07-29T12:02:37;2.75;;;1.00;;
30301;SDS011;17111;52.130;5.028;2023-07-29T12:05:08;1.27;;;0.90;;
30301;SDS011;17111;52.130;5.028;2023-07-29T12:07:38;1.63;;;1.23;;
30301;SDS011;17111;52.130;5.028;2023-07-29T12:10:05;2.28;;;1.15;;
30301;SDS011;17111;52.130;5.028;2023-07-29T12:12:32;1.95;;;0.88;;
30301;SDS011;17111;52.130;5.028;2023-07-29T12:14:59;3.13;;;1.02;;
30301;SDS011;17111;52.130;5.028;2023-07-29T12:17:26;1.85;;;1.00;;
30301;SDS011;17111;52.130;5.028;2023-07-29T12:19:54;1.80;;;0.95;;
30301;SDS011;17111;52.130;5.028;2023-07-29T12:22:21;3.05;;;1.20;;
30301;SDS011;17111;52.130;5.028;2023-07-29T12:24:49;6.28;;;1.10;;
30301;SDS011;17111;52.130;5.028;2023-07-29T12:27:17;1.33;;;0.95;;
30301;SDS011;17111;52.130;5.028;2023-07-29T12:29:44;1.65;;;0.80;;
30301;SDS011;17111;52.130;5.028;2023-07-29T12:32:13;1.80;;;0.90;;
30301;SDS011;17111;52.130;5.028;2023-07-29T12:34:40;1.27;;;1.00;;
30301;SDS011;17111;52.130;5.028;2023-07-29T12:37:07;2.30;;;1.40;;
30301;SDS011;17111;52.130;5.028;2023-07-29T12:39:34;2.63;;;0.88;;
30301;SDS011;17111;52.130;5.028;2023-07-29T12:42:06;1.70;;;0.98;;
30301;SDS011;17111;52.130;5.028;2023-07-29T12:44:33;3.35;;;0.95;;
30301;SDS011;17111;52.130;5.028;2023-07-29T12:47:02;2.05;;;0.90;;
30301;SDS011;17111;52.130;5.028;2023-07-29T12:49:30;2.13;;;0.93;;
30301;SDS011;17111;52.130;5.028;2023-07-29T12:51:58;2.30;;;0.90;;
30301;SDS011;17111;52.130;5.028;2023-07-29T12:54:27;2.42;;;1.10;;
30301;SDS011;17111;52.130;5.028;2023-07-29T12:56:53;1.67;;;1.00;;
30301;SDS011;17111;52.130;5.028;2023-07-29T12:59:20;1.40;;;1.10;;
30301;SDS011;17111;52.130;5.028;2023-07-29T13:01:47;2.22;;;0.93;;
30301;SDS011;17111;52.130;5.028;2023-07-29T13:04:14;2.30;;;1.20;;
30301;SDS011;17111;52.130;5.028;2023-07-29T13:06:40;4.15;;;1.52;;
30301;SDS011;17111;52.130;5.028;2023-07-29T13:09:07;2.92;;;1.60;;
30301;SDS011;17111;52.130;5.028;2023-07-29T13:11:34;2.72;;;1.10;;
30301;SDS011;17111;52.130;5.028;2023-07-29T13:14:01;1.85;;;1.38;;
30301;SDS011;17111;52.130;5.028;2023-07-29T13:16:28;3.45;;;1.83;;
30301;SDS011;17111;52.130;5.028;2023-07-29T13:18:55;4.30;;;1.70;;
30301;SDS011;17111;52.130;5.028;2023-07-29T13:21:22;2.30;;;1.73;;
30301;SDS011;17111;52.130;5.028;2023-07-29T13:23:50;3.20;;;1.60;;
30301;SDS011;17111;52.130;5.028;2023-07-29T13:26:18;2.05;;;1.40;;
30301;SDS011;17111;52.130;5.028;2023-07-29T13:28:44;3.38;;;1.45;;
30301;SDS011;17111;52.130;5.028;2023-07-29T13:31:11;4.43;;;3.22;;
30301;SDS011;17111;52.130;5.028;2023-07-29T13:33:41;5.60;;;3.55;;
30301;SDS011;17111;52.130;5.028;2023-07-29T13:36:08;7.53;;;3.40;;
30301;SDS011;17111;52.130;5.028;2023-07-29T13:38:35;5.47;;;3.00;;
30301;SDS011;17111;52.130;5.028;2023-07-29T13:41:01;6.45;;;3.00;;
30301;SDS011;17111;52.130;5.028;2023-07-29T13:43:28;7.25;;;3.25;;
30301;SDS011;17111;52.130;5.028;2023-07-29T13:45:55;5.25;;;3.22;;
30301;SDS011;17111;52.130;5.028;2023-07-29T13:48:22;4.32;;;3.08;;
30301;SDS011;17111;52.130;5.028;2023-07-29T13:50:48;5.88;;;2.83;;
30301;SDS011;17111;52.130;5.028;2023-07-29T13:53:15;5.97;;;3.15;;
30301;SDS011;17111;52.130;5.028;2023-07-29T13:55:42;5.28;;;3.00;;
30301;SDS011;17111;52.130;5.028;2023-07-29T13:58:08;4.20;;;3.08;;
30301;SDS011;17111;52.130;5.028;2023-07-29T14:00:35;6.03;;;2.97;;
30301;SDS011;17111;52.130;5.028;2023-07-29T14:03:01;3.50;;;2.28;;
30301;SDS011;17111;52.130;5.028;2023-07-29T14:05:29;5.20;;;3.20;;
30301;SDS011;17111;52.130;5.028;2023-07-29T14:07:55;5.03;;;2.42;;
30301;SDS011;17111;52.130;5.028;2023-07-29T14:10:22;4.63;;;2.88;;
30301;SDS011;17111;52.130;5.028;2023-07-29T14:12:49;4.28;;;2.95;;
30301;SDS011;17111;52.130;5.028;2023-07-29T14:15:15;4.20;;;2.63;;
30301;SDS011;17111;52.130;5.028;2023-07-29T14:17:42;5.75;;;3.15;;
30301;SDS011;17111;52.130;5.028;2023-07-29T14:20:09;4.53;;;3.17;;
30301;SDS011;17111;52.130;5.028;2023-07-29T14:22:36;3.83;;;2.10;;
30301;SDS011;17111;52.130;5.028;2023-07-29T14:25:03;6.93;;;3.13;;
30301;SDS011;17111;52.130;5.028;2023-07-29T14:27:30;5.20;;;2.70;;
30301;SDS011;17111;52.130;5.028;2023-07-29T14:29:56;4.45;;;2.90;;
30301;SDS011;17111;52.130;5.028;2023-07-29T14:32:23;4.20;;;2.47;;
30301;SDS011;17111;52.130;5.028;2023-07-29T14:34:50;4.90;;;2.50;;
30301;SDS011;17111;52.130;5.028;2023-07-29T14:37:17;4.47;;;2.78;;
30301;SDS011;17111;52.130;5.028;2023-07-29T14:39:44;12.90;;;5.45;;
30301;SDS011;17111;52.130;5.028;2023-07-29T14:42:10;6.10;;;3.60;;
30301;SDS011;17111;52.130;5.028;2023-07-29T14:44:37;6.88;;;4.43;;
30301;SDS011;17111;52.130;5.028;2023-07-29T14:47:03;7.00;;;3.65;;
30301;SDS011;17111;52.130;5.028;2023-07-29T14:49:30;5.18;;;2.72;;
30301;SDS011;17111;52.130;5.028;2023-07-29T14:51:57;5.00;;;3.00;;
30301;SDS011;17111;52.130;5.028;2023-07-29T14:54:23;4.47;;;2.88;;
30301;SDS011;17111;52.130;5.028;2023-07-29T14:56:50;7.25;;;3.40;;
30301;SDS011;17111;52.130;5.028;2023-07-29T14:59:16;5.28;;;2.83;;
30301;SDS011;17111;52.130;5.028;2023-07-29T15:01:43;6.78;;;2.72;;
30301;SDS011;17111;52.130;5.028;2023-07-29T15:04:10;6.28;;;2.70;;
30301;SDS011;17111;52.130;5.028;2023-07-29T15:06:36;3.60;;;2.33;;
30301;SDS011;17111;52.130;5.028;2023-07-29T15:09:03;3.97;;;2.22;;
30301;SDS011;17111;52.130;5.028;2023-07-29T15:11:30;4.07;;;2.17;;